Main page
METAR-TAF:

METAR-TAF

Airports :

Suceava International Airport

Suceava, Romania

latitude: 47-39N, longitude: 026-15E, elevation: 351 m

Current weather observation

The report was made 44 minutes ago, at 22:00 UTC
Wind 9 kt from the West/Northwest
Temperature 11°C
Humidity 71%
Pressure 1005 hPa
Visibility 10 km or more
no clouds below 1500 m and no cumulonimbus

METAR: LRSV 242200Z 29009KT CAVOK 11/06 Q1005

Time: 01:44 (22:44 UTC)

Forecast

The report was made 2 hours and 44 minutes ago, at 20:00 UTC
Forecast valid from 24 at 21 UTC to 25 at 06 UTC
Wind 9 kt from the West/Northwest
Visibility 10 km or more
no clouds below 1500 m and no cumulonimbus
Probability 30% :
Temporary
from 25 at 00 UTC to 25 at 05 UTC
Visibility: 3000 m
mist,

TAF: LRSV 242000Z 2421/2506 29009KT CAVOK PROB30 TEMPO 2500/2505 3000 BR

Weather observations and forecasts of more than 4000 airports (METAR and TAF reports).

The available stations are represented by yellow and red dots on the map.

Hover mouse over dot to see the name of the station.

Then click to see weather observations and forecasts.

To change the map : click on the green buttons with a black cross to zoom in, on the green button with a dash to zoom out, or on the green arrows for adjacent maps.


METAR-TAF: